createdAt,value
2022-09-14T00:01:24.901Z,17.69
2022-09-14T00:03:58.472Z,17.47
2022-09-14T00:06:29.141Z,17.54
2022-09-14T00:08:58.212Z,16.93
2022-09-14T00:11:27.181Z,16.04
2022-09-14T00:13:54.322Z,17.28
2022-09-14T00:16:25.052Z,15.11
2022-09-14T00:19:00.409Z,16.02
2022-09-14T00:21:28.022Z,17.03
2022-09-14T00:23:54.357Z,16.94
2022-09-14T00:26:22.797Z,17.24
2022-09-14T00:28:54.715Z,17.35
2022-09-14T00:31:22.906Z,17.34
2022-09-14T00:33:51.269Z,17.15
2022-09-14T00:36:23.495Z,17.09
2022-09-14T00:38:51.544Z,17.25
2022-09-14T00:41:21.687Z,16.38
2022-09-14T00:43:55.063Z,17.28
2022-09-14T00:46:22.305Z,16.13
2022-09-14T00:48:49.432Z,17.32
2022-09-14T00:51:18.728Z,17.37
2022-09-14T00:53:45.691Z,17.25
2022-09-14T00:56:13.796Z,17.45
2022-09-14T00:58:43.040Z,16.20
2022-09-14T01:01:10.372Z,17.46
2022-09-14T01:03:37.154Z,17.49
2022-09-14T01:06:26.256Z,17.50
2022-09-14T01:09:00.689Z,17.51
2022-09-14T01:11:37.021Z,17.51
2022-09-14T01:14:12.116Z,17.51
2022-09-14T01:16:55.325Z,17.06
2022-09-14T01:20:06.538Z,17.50
2022-09-14T01:22:52.831Z,16.68
2022-09-14T01:25:48.570Z,17.51
2022-09-14T01:28:46.654Z,17.55
2022-09-14T01:31:21.342Z,17.58
2022-09-14T01:34:20.255Z,16.20
2022-09-14T01:36:53.418Z,16.38
2022-09-14T01:39:22.057Z,17.51
2022-09-14T01:41:54.095Z,17.54
2022-09-14T01:44:26.366Z,17.51
2022-09-14T01:47:07.997Z,16.91
2022-09-14T01:49:40.534Z,17.30
2022-09-14T01:52:26.882Z,17.21
2022-09-14T01:55:01.619Z,17.31
2022-09-14T01:57:36.375Z,16.91
2022-09-14T02:00:12.401Z,17.07
2022-09-14T02:02:44.391Z,17.05
2022-09-14T02:05:46.311Z,17.30
2022-09-14T02:08:13.102Z,16.52
2022-09-14T02:10:40.439Z,17.04
2022-09-14T02:13:08.172Z,15.97
2022-09-14T02:15:37.053Z,17.02
2022-09-14T02:18:04.263Z,15.75
2022-09-14T02:20:44.137Z,17.05
2022-09-14T02:23:10.558Z,16.80
2022-09-14T02:25:37.345Z,15.18
2022-09-14T02:28:05.103Z,16.20
2022-09-14T02:30:39.287Z,16.80
2022-09-14T02:33:16.709Z,16.79
2022-09-14T02:35:54.243Z,15.45
2022-09-14T02:38:38.972Z,16.81
2022-09-14T02:41:51.207Z,16.79
2022-09-14T02:44:27.048Z,16.80
2022-09-14T02:47:02.777Z,16.79
2022-09-14T02:49:56.653Z,16.80
2022-09-14T02:52:30.470Z,15.50
2022-09-14T02:55:08.094Z,16.82
2022-09-14T02:58:05.159Z,16.75
2022-09-14T03:00:36.792Z,16.61
2022-09-14T03:03:08.118Z,16.44
2022-09-14T03:05:34.970Z,16.58
2022-09-14T03:08:03.007Z,16.65
2022-09-14T03:10:31.056Z,16.25
2022-09-14T03:12:58.745Z,16.48
2022-09-14T03:15:25.969Z,16.38
2022-09-14T03:17:52.318Z,16.31
2022-09-14T03:20:24.551Z,16.37
2022-09-14T03:22:51.238Z,16.15
2022-09-14T03:25:19.248Z,16.33
2022-09-14T03:27:50.629Z,16.14
2022-09-14T03:30:18.170Z,14.28
2022-09-14T03:32:45.150Z,16.36
2022-09-14T03:35:12.475Z,16.11
2022-09-14T03:37:40.769Z,15.14
2022-09-14T03:40:08.794Z,15.92
2022-09-14T03:42:35.718Z,16.07
2022-09-14T03:45:02.849Z,16.32
2022-09-14T03:47:29.489Z,15.86
2022-09-14T03:49:55.873Z,15.94
2022-09-14T03:52:22.326Z,16.30
2022-09-14T03:54:51.693Z,15.07
2022-09-14T03:57:18.128Z,16.35
2022-09-14T03:59:44.578Z,16.33
2022-09-14T04:02:14.134Z,15.45
2022-09-14T04:04:40.859Z,16.19
2022-09-14T04:07:07.599Z,16.17
2022-09-14T04:09:34.065Z,16.16
2022-09-14T04:12:00.804Z,16.04
2022-09-14T04:14:46.741Z,16.19
2022-09-14T04:17:13.887Z,16.23
2022-09-14T04:19:50.521Z,14.67
2022-09-14T04:22:33.348Z,14.95
2022-09-14T04:25:23.245Z,16.07
2022-09-14T04:28:04.184Z,16.10
2022-09-14T04:30:37.377Z,16.13
2022-09-14T04:33:03.877Z,15.54
2022-09-14T04:35:30.191Z,16.10
2022-09-14T04:37:56.554Z,15.95
2022-09-14T04:40:23.065Z,15.05
2022-09-14T04:42:49.969Z,15.19
2022-09-14T04:45:16.477Z,15.74
2022-09-14T04:47:43.015Z,16.02
2022-09-14T04:50:09.506Z,15.84
2022-09-14T04:52:37.219Z,14.09
2022-09-14T04:55:04.101Z,14.72
2022-09-14T04:57:31.370Z,14.44
2022-09-14T04:59:57.728Z,15.43
2022-09-14T05:02:24.400Z,15.72
2022-09-14T05:04:50.859Z,15.93
2022-09-14T05:07:17.321Z,15.92
2022-09-14T05:09:43.737Z,14.73
2022-09-14T05:12:11.519Z,15.36
2022-09-14T05:14:37.890Z,15.67
2022-09-14T05:17:04.777Z,15.66
2022-09-14T05:19:31.163Z,15.36
2022-09-14T05:21:57.507Z,15.60
2022-09-14T05:24:24.006Z,14.29
2022-09-14T05:26:52.241Z,15.53
2022-09-14T05:29:19.150Z,15.46
2022-09-14T05:31:45.951Z,15.54
2022-09-14T05:34:13.142Z,15.50
2022-09-14T05:36:40.367Z,15.56
2022-09-14T05:39:07.732Z,15.55
2022-09-14T05:41:34.127Z,15.16
2022-09-14T05:44:00.481Z,15.56
2022-09-14T05:46:26.989Z,14.90
2022-09-14T05:48:53.497Z,15.03
2022-09-14T05:51:22.910Z,15.48
2022-09-14T05:53:51.351Z,15.45
2022-09-14T05:56:19.202Z,15.21
2022-09-14T05:58:45.643Z,15.31
2022-09-14T06:01:14.757Z,15.30
2022-09-14T06:03:41.807Z,14.07
2022-09-14T06:06:10.178Z,15.25
2022-09-14T06:08:37.434Z,13.90
2022-09-14T06:11:09.569Z,14.43
2022-09-14T06:13:36.271Z,13.83
2022-09-14T06:16:04.677Z,15.06
2022-09-14T06:18:32.633Z,15.21
2022-09-14T06:20:59.351Z,13.80
2022-09-14T06:23:27.747Z,15.04
2022-09-14T06:25:55.684Z,15.13
2022-09-14T06:28:23.721Z,15.14
2022-09-14T06:30:50.119Z,13.86
2022-09-14T06:33:17.554Z,15.10
2022-09-14T06:35:46.351Z,13.79
2022-09-14T06:38:14.851Z,14.95
2022-09-14T06:41:00.755Z,15.04
2022-09-14T06:43:30.686Z,14.98
2022-09-14T06:46:07.963Z,14.95
2022-09-14T06:48:39.781Z,14.98
2022-09-14T06:51:30.861Z,14.92
2022-09-14T06:54:01.615Z,14.95
2022-09-14T06:56:31.350Z,13.63
2022-09-14T06:58:58.925Z,14.92
2022-09-14T07:01:26.833Z,13.39
2022-09-14T07:03:54.677Z,13.69
2022-09-14T07:06:27.002Z,14.71
2022-09-14T07:08:54.415Z,14.84
2022-09-14T07:11:25.597Z,14.82
2022-09-14T07:13:54.680Z,14.82
2022-09-14T07:16:21.611Z,14.86
2022-09-14T07:18:48.785Z,14.90
2022-09-14T07:21:17.698Z,14.60
2022-09-14T07:23:46.328Z,15.04
2022-09-14T07:26:18.905Z,15.04
2022-09-14T07:28:48.119Z,14.94
2022-09-14T07:31:23.456Z,15.12
2022-09-14T07:33:53.989Z,15.11
2022-09-14T07:36:21.246Z,15.00
2022-09-14T07:38:52.580Z,13.82
2022-09-14T07:41:21.280Z,14.53
2022-09-14T07:43:52.139Z,13.63
2022-09-14T07:46:19.449Z,15.00
2022-09-14T07:48:46.303Z,15.07
2022-09-14T07:51:13.289Z,15.03
2022-09-14T07:53:42.908Z,15.07
2022-09-14T07:56:11.160Z,14.08
2022-09-14T07:58:37.854Z,15.05
2022-09-14T08:01:11.913Z,15.04
2022-09-14T08:03:42.049Z,14.06
2022-09-14T08:06:11.942Z,14.92
2022-09-14T08:08:41.831Z,14.99
2022-09-14T08:11:16.573Z,14.81
2022-09-14T08:13:45.845Z,14.49
2022-09-14T08:16:13.316Z,14.84
2022-09-14T08:18:40.580Z,14.36
2022-09-14T08:21:09.930Z,14.40
2022-09-14T08:23:40.574Z,14.73
2022-09-14T08:26:12.213Z,14.58
2022-09-14T08:28:39.205Z,14.71
2022-09-14T08:31:13.514Z,14.67
2022-09-14T08:33:42.870Z,14.68
2022-09-14T08:36:11.050Z,14.70
2022-09-14T08:38:37.753Z,13.32
2022-09-14T08:41:30.463Z,14.72
2022-09-14T08:44:23.170Z,14.70
2022-09-14T08:46:58.959Z,14.59
2022-09-14T08:49:59.351Z,14.58
2022-09-14T08:52:31.199Z,14.77
2022-09-14T08:55:00.838Z,14.83
2022-09-14T08:57:46.088Z,14.86
2022-09-14T09:00:16.952Z,14.68
2022-09-14T09:02:52.391Z,14.93
2022-09-14T09:05:56.536Z,14.98
2022-09-14T09:08:44.619Z,15.03
2022-09-14T09:11:26.960Z,14.90
2022-09-14T09:13:55.463Z,13.55
2022-09-14T09:16:25.062Z,15.14
2022-09-14T09:18:59.127Z,15.05
2022-09-14T09:21:31.170Z,14.02
2022-09-14T09:24:51.284Z,15.08
2022-09-14T09:27:17.761Z,15.05
2022-09-14T09:29:44.438Z,15.19
2022-09-14T09:32:16.850Z,14.92
2022-09-14T09:34:43.897Z,14.28
2022-09-14T09:37:22.423Z,15.21
2022-09-14T09:39:52.065Z,15.03
2022-09-14T09:42:22.909Z,15.18
2022-09-14T09:45:00.650Z,15.22
2022-09-14T09:47:40.905Z,13.90
2022-09-14T09:50:20.168Z,15.12
2022-09-14T09:52:55.859Z,13.33
2022-09-14T09:55:26.640Z,14.95
2022-09-14T09:57:54.152Z,14.82
2022-09-14T10:00:24.129Z,15.02
2022-09-14T10:02:51.536Z,14.93
2022-09-14T10:05:17.855Z,15.06
2022-09-14T10:07:50.298Z,15.03
2022-09-14T10:10:20.301Z,15.07
2022-09-14T10:12:49.985Z,14.96
2022-09-14T10:15:32.002Z,14.99
2022-09-14T10:18:13.544Z,15.05
2022-09-14T10:20:43.506Z,14.89
2022-09-14T10:23:31.581Z,15.04
2022-09-14T10:26:13.309Z,15.11
2022-09-14T10:28:43.209Z,15.03
2022-09-14T10:31:16.231Z,15.06
2022-09-14T10:33:42.833Z,14.75
2022-09-14T10:36:25.590Z,14.91
2022-09-14T10:38:58.545Z,13.53
2022-09-14T10:41:49.477Z,14.92
2022-09-14T10:44:39.405Z,14.90
2022-09-14T10:47:24.361Z,14.92
2022-09-14T10:50:02.586Z,14.80
2022-09-14T10:52:47.624Z,14.86
2022-09-14T10:55:36.884Z,14.87
2022-09-14T10:58:24.298Z,14.87
2022-09-14T11:00:57.079Z,14.89
2022-09-14T11:03:54.211Z,13.91
2022-09-14T11:06:28.112Z,14.98
2022-09-14T11:09:22.962Z,15.16
2022-09-14T11:11:54.190Z,15.23
2022-09-14T11:14:39.078Z,15.31
2022-09-14T11:17:33.526Z,15.29
2022-09-14T11:20:21.108Z,15.24
2022-09-14T11:22:58.038Z,15.32
2022-09-14T11:25:29.986Z,15.51
2022-09-14T11:28:08.721Z,14.21
2022-09-14T11:30:56.746Z,15.61
2022-09-14T11:33:38.974Z,15.82
2022-09-14T11:36:26.389Z,14.32
2022-09-14T11:39:06.560Z,15.60
2022-09-14T11:41:47.430Z,15.39
2022-09-14T11:44:22.538Z,14.23
2022-09-14T11:47:00.483Z,15.39
2022-09-14T11:49:52.335Z,15.37
2022-09-14T11:52:21.938Z,15.36
2022-09-14T11:54:49.938Z,14.79
2022-09-14T11:57:18.808Z,13.90
2022-09-14T11:59:48.377Z,15.54
2022-09-14T12:02:23.807Z,15.43
2022-09-14T12:05:10.278Z,15.66
2022-09-14T12:07:39.799Z,15.74
2022-09-14T12:10:15.374Z,15.99
2022-09-14T12:12:48.038Z,15.87
2022-09-14T12:15:16.600Z,16.07
2022-09-14T12:17:44.683Z,15.88
2022-09-14T12:20:42.739Z,16.27
2022-09-14T12:23:23.751Z,16.08
2022-09-14T12:26:09.265Z,16.12
2022-09-14T12:28:35.873Z,15.97
2022-09-14T12:31:05.081Z,15.90
2022-09-14T12:33:31.932Z,15.77
2022-09-14T12:36:31.197Z,15.87
2022-09-14T12:38:57.574Z,15.78
2022-09-14T12:41:26.627Z,15.77
2022-09-14T12:43:56.216Z,15.62
2022-09-14T12:46:22.613Z,15.53
2022-09-14T12:48:52.103Z,15.62
2022-09-14T12:51:33.932Z,15.64
2022-09-14T12:54:09.296Z,15.54
2022-09-14T12:56:46.708Z,15.56
2022-09-14T12:59:31.850Z,15.46
2022-09-14T13:02:24.549Z,15.50
2022-09-14T13:04:56.791Z,15.43
2022-09-14T13:07:29.975Z,15.71
2022-09-14T13:09:58.431Z,15.36
2022-09-14T13:12:33.956Z,15.80
2022-09-14T13:15:06.885Z,15.64
2022-09-14T13:17:36.224Z,15.81
2022-09-14T13:20:05.989Z,15.75
2022-09-14T13:22:33.189Z,13.23
2022-09-14T13:25:01.468Z,15.19
2022-09-14T13:27:31.813Z,15.38
2022-09-14T13:30:01.923Z,14.39
2022-09-14T13:32:28.858Z,14.38
2022-09-14T13:34:56.031Z,14.87
2022-09-14T13:37:23.497Z,15.23
2022-09-14T13:39:57.992Z,14.10
2022-09-14T13:42:25.068Z,14.09
2022-09-14T13:44:55.561Z,13.99
2022-09-14T13:47:25.401Z,15.16
2022-09-14T13:49:54.251Z,13.94
2022-09-14T13:52:31.016Z,15.09
2022-09-14T13:55:28.326Z,15.07
2022-09-14T13:58:09.933Z,15.13
2022-09-14T14:00:57.865Z,15.09
2022-09-14T14:03:36.979Z,15.00
2022-09-14T14:06:20.657Z,15.01
2022-09-14T14:09:16.030Z,14.99
2022-09-14T14:11:55.126Z,14.92
2022-09-14T14:14:30.892Z,14.84
2022-09-14T14:17:12.751Z,14.88
2022-09-14T14:19:43.795Z,14.60
2022-09-14T14:22:20.886Z,14.81
2022-09-14T14:25:13.748Z,13.59
2022-09-14T14:27:47.090Z,14.03
2022-09-14T14:30:19.711Z,14.81
2022-09-14T14:32:54.294Z,14.96
2022-09-14T14:35:30.438Z,13.80
2022-09-14T14:37:57.481Z,15.15
2022-09-14T14:40:27.277Z,13.78
2022-09-14T14:42:54.849Z,15.12
2022-09-14T14:45:26.396Z,15.21
2022-09-14T14:47:54.930Z,14.95
2022-09-14T14:50:26.830Z,14.98
2022-09-14T14:52:53.976Z,15.22
2022-09-14T14:55:22.238Z,15.18
2022-09-14T14:57:49.761Z,15.13
2022-09-14T15:00:25.053Z,15.22
2022-09-14T15:02:51.585Z,14.01
2022-09-14T15:05:18.449Z,14.98
2022-09-14T15:07:47.343Z,15.22
2022-09-14T15:10:15.890Z,15.16
2022-09-14T15:12:42.913Z,13.66
2022-09-14T15:15:18.510Z,15.15
2022-09-14T15:17:44.970Z,15.19
2022-09-14T15:20:13.055Z,14.18
2022-09-14T15:22:42.730Z,15.22
2022-09-14T15:25:11.435Z,15.20
2022-09-14T15:27:40.199Z,15.35
2022-09-14T15:30:07.752Z,15.62
2022-09-14T15:32:34.591Z,14.42
2022-09-14T15:35:01.261Z,15.74
2022-09-14T15:37:27.661Z,15.87
2022-09-14T15:39:54.290Z,15.52
2022-09-14T15:42:31.957Z,15.99
2022-09-14T15:45:00.952Z,15.62
2022-09-14T15:47:27.315Z,14.46
2022-09-14T15:49:53.940Z,15.91
2022-09-14T15:52:20.268Z,15.95
2022-09-14T15:54:47.062Z,15.63
2022-09-14T15:57:13.447Z,15.78
2022-09-14T15:59:40.123Z,16.28
2022-09-14T16:02:07.087Z,16.30
2022-09-14T16:04:37.829Z,16.31
2022-09-14T16:07:09.442Z,16.43
2022-09-14T16:09:42.233Z,16.55
2022-09-14T16:12:10.203Z,16.10
2022-09-14T16:14:36.673Z,16.34
2022-09-14T16:17:03.912Z,15.21
2022-09-14T16:19:30.446Z,16.23
2022-09-14T16:21:57.399Z,16.22
2022-09-14T16:24:24.491Z,14.94
2022-09-14T16:26:51.459Z,16.13
2022-09-14T16:29:19.520Z,16.02
2022-09-14T16:31:47.661Z,16.12
2022-09-14T16:34:22.808Z,16.14
2022-09-14T16:36:50.119Z,15.14
2022-09-14T16:39:22.972Z,16.19
2022-09-14T16:41:49.745Z,15.76
2022-09-14T16:44:19.043Z,14.93
2022-09-14T16:46:46.026Z,16.03
2022-09-14T16:49:12.638Z,16.07
2022-09-14T16:51:39.145Z,15.87
2022-09-14T16:54:05.833Z,15.85
2022-09-14T16:56:35.856Z,15.85
2022-09-14T16:59:03.734Z,15.64
2022-09-14T17:01:36.451Z,15.52
2022-09-14T17:04:09.387Z,15.43
2022-09-14T17:06:37.413Z,15.31
2022-09-14T17:09:07.690Z,15.29
2022-09-14T17:11:35.635Z,15.08
2022-09-14T17:14:02.138Z,15.16
2022-09-14T17:16:28.738Z,15.04
2022-09-14T17:18:59.176Z,13.57
2022-09-14T17:21:28.612Z,15.02
2022-09-14T17:23:55.257Z,14.94
2022-09-14T17:26:22.559Z,14.96
2022-09-14T17:28:50.930Z,13.75
2022-09-14T17:31:23.977Z,14.92
2022-09-14T17:33:53.483Z,14.68
2022-09-14T17:36:20.453Z,14.66
2022-09-14T17:38:48.490Z,14.62
2022-09-14T17:41:18.349Z,14.50
2022-09-14T17:43:44.836Z,14.33
2022-09-14T17:46:14.118Z,14.42
2022-09-14T17:48:42.312Z,14.41
2022-09-14T17:51:17.282Z,14.31
2022-09-14T17:53:45.209Z,14.14
2022-09-14T17:56:13.555Z,14.19
2022-09-14T17:58:40.887Z,13.39
2022-09-14T18:01:11.815Z,13.42
2022-09-14T18:03:40.353Z,14.39
2022-09-14T18:06:10.247Z,14.33
2022-09-14T18:08:37.318Z,13.15
2022-09-14T18:11:13.462Z,14.41
2022-09-14T18:13:45.674Z,14.38
2022-09-14T18:16:13.828Z,14.23
2022-09-14T18:18:40.389Z,14.40
2022-09-14T18:21:07.493Z,14.36
2022-09-14T18:23:34.822Z,13.17
2022-09-14T18:26:02.880Z,14.01
2022-09-14T18:28:29.586Z,14.30
2022-09-14T18:31:10.521Z,13.01
2022-09-14T18:33:37.305Z,12.81
2022-09-14T18:36:06.278Z,13.12
2022-09-14T18:38:33.622Z,14.18
2022-09-14T18:41:08.402Z,13.67
2022-09-14T18:43:35.802Z,12.86
2022-09-14T18:46:06.442Z,14.09
2022-09-14T18:48:33.247Z,13.02
2022-09-14T18:51:01.225Z,14.05
2022-09-14T18:53:27.822Z,13.88
2022-09-14T18:55:54.139Z,13.86
2022-09-14T18:58:20.569Z,14.01
2022-09-14T19:00:47.443Z,12.33
2022-09-14T19:03:13.856Z,13.82
2022-09-14T19:05:41.506Z,13.13
2022-09-14T19:08:13.500Z,14.08
2022-09-14T19:10:40.645Z,14.13
2022-09-14T19:13:07.621Z,13.81
2022-09-14T19:15:34.214Z,12.81
2022-09-14T19:18:00.981Z,14.12
2022-09-14T19:20:43.035Z,14.11
2022-09-14T19:23:13.718Z,13.35
2022-09-14T19:25:40.620Z,13.86
2022-09-14T19:28:07.347Z,13.74
2022-09-14T19:30:36.305Z,13.44
2022-09-14T19:33:02.844Z,14.12
2022-09-14T19:35:30.320Z,12.86
2022-09-14T19:37:57.505Z,13.88
2022-09-14T19:40:24.500Z,14.19
2022-09-14T19:42:51.744Z,13.91
2022-09-14T19:45:19.199Z,13.86
2022-09-14T19:47:45.678Z,14.10
2022-09-14T19:50:12.075Z,13.92
2022-09-14T19:52:38.533Z,14.02
2022-09-14T19:55:05.438Z,12.73
2022-09-14T19:57:32.451Z,12.60
2022-09-14T19:59:58.906Z,12.36
2022-09-14T20:02:25.553Z,13.74
2022-09-14T20:04:51.998Z,13.76
2022-09-14T20:07:18.625Z,13.41
2022-09-14T20:09:45.438Z,13.72
2022-09-14T20:12:11.800Z,12.49
2022-09-14T20:14:38.126Z,13.65
2022-09-14T20:17:05.108Z,13.74
2022-09-14T20:19:32.623Z,13.77
2022-09-14T20:21:59.054Z,13.57
2022-09-14T20:24:28.077Z,13.76
2022-09-14T20:26:59.613Z,13.80
2022-09-14T20:29:30.068Z,13.74
2022-09-14T20:31:57.574Z,13.55
2022-09-14T20:34:24.043Z,13.84
2022-09-14T20:36:52.176Z,13.84
2022-09-14T20:39:19.837Z,13.54
2022-09-14T20:41:46.781Z,13.68
2022-09-14T20:44:13.864Z,13.85
2022-09-14T20:46:42.970Z,13.87
2022-09-14T20:49:19.459Z,12.44
2022-09-14T20:51:46.584Z,12.90
2022-09-14T20:54:16.891Z,13.71
2022-09-14T20:56:46.922Z,13.38
2022-09-14T20:59:21.528Z,13.61
2022-09-14T21:01:57.159Z,13.52
2022-09-14T21:04:34.606Z,13.46
2022-09-14T21:07:01.785Z,13.40
2022-09-14T21:09:29.089Z,12.86
2022-09-14T21:12:03.028Z,13.27
2022-09-14T21:14:29.867Z,13.17
2022-09-14T21:17:05.072Z,13.18
2022-09-14T21:19:32.417Z,12.66
2022-09-14T21:22:00.987Z,11.69
2022-09-14T21:24:27.539Z,13.10
2022-09-14T21:26:59.421Z,13.08
2022-09-14T21:29:26.010Z,12.72
2022-09-14T21:31:59.557Z,13.02
2022-09-14T21:34:26.355Z,11.66
2022-09-14T21:36:52.823Z,11.70
2022-09-14T21:39:33.479Z,12.88
2022-09-14T21:42:03.950Z,13.08
2022-09-14T21:44:43.782Z,13.14
2022-09-14T21:47:13.398Z,13.18
2022-09-14T21:49:43.405Z,13.23
2022-09-14T21:52:09.830Z,12.70
2022-09-14T21:54:36.249Z,13.31
2022-09-14T21:57:02.640Z,12.09
2022-09-14T21:59:29.018Z,11.46
2022-09-14T22:01:55.471Z,13.30
2022-09-14T22:04:24.372Z,12.70
2022-09-14T22:06:51.563Z,12.92
2022-09-14T22:09:20.411Z,13.46
2022-09-14T22:11:47.222Z,12.83
2022-09-14T22:14:18.124Z,13.28
2022-09-14T22:16:45.175Z,13.29
2022-09-14T22:19:19.702Z,11.94
2022-09-14T22:21:46.447Z,13.33
2022-09-14T22:24:19.114Z,13.27
2022-09-14T22:26:46.439Z,13.35
2022-09-14T22:29:14.712Z,13.21
2022-09-14T22:31:43.782Z,13.26
2022-09-14T22:34:11.266Z,13.32
2022-09-14T22:36:37.853Z,13.30
2022-09-14T22:39:04.917Z,11.91
2022-09-14T22:41:31.556Z,12.06
2022-09-14T22:43:58.202Z,13.27
2022-09-14T22:46:25.411Z,13.27
2022-09-14T22:48:52.498Z,13.29
2022-09-14T22:51:21.886Z,13.28
2022-09-14T22:53:48.519Z,12.39
2022-09-14T22:56:18.498Z,13.33
2022-09-14T22:58:46.422Z,13.33
2022-09-14T23:01:18.971Z,13.34
2022-09-14T23:03:45.823Z,13.07
2022-09-14T23:06:12.904Z,13.35
2022-09-14T23:08:39.967Z,12.45
2022-09-14T23:11:10.639Z,13.36
2022-09-14T23:13:39.762Z,13.39
2022-09-14T23:16:14.962Z,13.24
2022-09-14T23:18:42.090Z,13.22
2022-09-14T23:21:13.041Z,12.10
2022-09-14T23:23:42.056Z,13.12
2022-09-14T23:26:11.374Z,13.45
2022-09-14T23:28:38.828Z,13.46
2022-09-14T23:31:06.403Z,13.44
2022-09-14T23:33:33.791Z,11.45
2022-09-14T23:36:00.322Z,13.39
2022-09-14T23:38:26.830Z,13.49
2022-09-14T23:40:53.242Z,12.08
2022-09-14T23:43:20.399Z,12.23
2022-09-14T23:45:48.006Z,12.01
2022-09-14T23:48:14.908Z,13.39
2022-09-14T23:50:41.673Z,13.31
2022-09-14T23:53:08.242Z,13.31
2022-09-14T23:55:35.077Z,13.27
2022-09-14T23:58:01.462Z,11.80
